Time;durP1;ratioP1;P1;durP2;ratioP2;P2;SDS_P1;SDS_P2;PMS_P1;PMS_P2;Temp;Humidity;BMP_temperature;BMP_pressure;BME280_temperature;BME280_humidity;BME280_pressure;Samples;Min_cycle;Max_cycle;Signal;HPM_P1;HPM_P2
2020/12/12 00:01:23;;;;;;;29.82;23.10;;;;;;;-1.58;74.61;100292.36;1809559;79;21236;-80
2020/12/12 00:04:29;;;;;;;23.67;12.75;;;;;;;-1.57;74.44;100293.21;1811231;79;21330;-80
2020/12/12 00:07:35;;;;;;;28.83;21.85;;;;;;;-1.60;74.36;100292.05;1810806;79;21284;-80
2020/12/12 00:10:41;;;;;;;36.73;24.25;;;;;;;-1.62;74.27;100292.17;1811552;79;21902;-80
2020/12/12 00:13:48;;;;;;;28.90;14.15;;;;;;;-1.66;74.32;100293.33;1810454;79;21870;-80
2020/12/12 00:16:53;;;;;;;39.10;30.17;;;;;;;-1.71;74.31;100297.27;1809834;79;21798;-81
2020/12/12 00:19:58;;;;;;;30.00;16.42;;;;;;;-1.74;74.36;100284.05;1811410;79;21295;-80
2020/12/12 00:23:04;;;;;;;26.75;16.80;;;;;;;-1.76;74.29;100285.98;1811551;79;21708;-80
2020/12/12 00:26:10;;;;;;;23.35;14.93;;;;;;;-1.78;74.26;100273.16;1811106;79;21311;-80
2020/12/12 00:29:15;;;;;;;27.90;17.15;;;;;;;-1.80;74.26;100266.05;1810068;79;21200;-80
2020/12/12 00:32:20;;;;;;;26.07;15.70;;;;;;;-1.83;74.22;100263.59;1811567;79;21307;-80
2020/12/12 00:35:26;;;;;;;26.00;13.48;;;;;;;-1.88;74.34;100261.69;1811434;79;21335;-80
2020/12/12 00:38:31;;;;;;;34.03;20.23;;;;;;;-1.90;74.51;100261.39;1809924;79;21323;-79
2020/12/12 00:41:43;;;;;;;26.90;17.45;;;;;;;-1.91;74.73;100293.19;1811592;79;21287;-79
2020/12/12 00:44:49;;;;;;;31.85;18.07;;;;;;;-1.88;74.74;100258.15;1809968;79;21378;-80
2020/12/12 00:47:55;;;;;;;20.70;9.33;;;;;;;-1.89;74.57;100254.58;1810778;79;21822;-80
2020/12/12 00:51:02;;;;;;;38.08;25.48;;;;;;;-1.86;74.48;100259.75;1811488;79;21276;-79
2020/12/12 00:54:08;;;;;;;20.95;10.10;;;;;;;-1.85;74.43;100254.77;1811547;79;21298;-80
2020/12/12 00:57:17;;;;;;;31.75;20.55;;;;;;;-1.86;74.46;100259.75;1811426;79;21283;-80
2020/12/12 01:00:22;;;;;;;20.32;9.70;;;;;;;-1.85;74.45;100257.45;1802581;79;21351;-80
2020/12/12 01:03:28;;;;;;;43.30;24.63;;;;;;;-1.85;74.56;100264.14;1803125;79;21283;-80
2020/12/12 01:06:33;;;;;;;29.48;15.75;;;;;;;-1.83;74.65;100248.84;1802819;79;22711;-80
2020/12/12 01:09:41;;;;;;;50.60;34.53;;;;;;;-1.83;74.70;100246.16;1801606;79;21184;-80
2020/12/12 01:12:46;;;;;;;18.82;11.85;;;;;;;-1.85;74.74;100258.78;1803146;79;21176;-80
2020/12/12 01:15:51;;;;;;;45.80;27.62;;;;;;;-1.82;74.85;100241.66;1802585;79;21292;-80
2020/12/12 01:18:57;;;;;;;34.33;21.07;;;;;;;-1.83;74.87;100243.48;1801875;79;21323;-80
2020/12/12 01:22:03;;;;;;;31.42;18.40;;;;;;;-1.82;74.86;100251.89;1802721;79;21295;-80
2020/12/12 01:25:10;;;;;;;37.93;25.50;;;;;;;-1.81;74.89;100237.52;1802873;79;21350;-80
2020/12/12 01:28:18;;;;;;;21.95;14.25;;;;;;;-1.80;74.89;100229.85;1802681;79;21197;-80
2020/12/12 01:31:23;;;;;;;22.58;11.08;;;;;;;-1.78;74.75;100227.58;1802933;79;21330;-80
2020/12/12 01:34:29;;;;;;;29.00;16.37;;;;;;;-1.78;74.81;100225.75;1802920;79;21192;-80
2020/12/12 01:37:34;;;;;;;28.32;18.82;;;;;;;-1.77;74.88;100222.59;1802493;79;21358;-80
2020/12/12 01:40:40;;;;;;;28.60;14.25;;;;;;;-1.77;74.88;100233.31;1801936;79;21291;-81
2020/12/12 01:43:47;;;;;;;36.08;23.18;;;;;;;-1.76;74.87;100216.25;1801981;79;21264;-81
2020/12/12 01:46:53;;;;;;;23.90;11.78;;;;;;;-1.75;74.91;100220.17;1803241;79;21811;-80
2020/12/12 01:49:59;;;;;;;26.33;19.67;;;;;;;-1.77;74.96;100219.42;1801919;79;21283;-80
2020/12/12 01:53:05;;;;;;;30.40;12.07;;;;;;;-1.75;74.99;100216.63;1803071;79;21169;-80
2020/12/12 01:56:10;;;;;;;33.05;22.77;;;;;;;-1.73;75.01;100214.72;1801497;79;21244;-80
2020/12/12 01:59:16;;;;;;;24.25;17.02;;;;;;;-1.70;74.99;100210.48;1801566;79;21264;-81
2020/12/12 02:02:22;;;;;;;27.55;16.67;;;;;;;-1.67;74.99;100212.97;1801666;79;21288;-80
2020/12/12 02:05:39;;;;;;;23.92;12.82;;;;;;;-1.67;74.92;100203.10;1803031;79;21716;-81
2020/12/12 02:08:45;;;;;;;19.77;13.62;;;;;;;-1.66;74.90;100201.27;1802786;79;21186;-80
2020/12/12 02:11:50;;;;;;;21.45;9.33;;;;;;;-1.63;74.93;100219.86;1802913;79;21295;-81
2020/12/12 02:14:55;;;;;;;18.23;9.98;;;;;;;-1.65;74.88;100209.69;1802810;79;21362;-80
2020/12/12 02:18:01;;;;;;;17.50;11.65;;;;;;;-1.67;74.97;100215.17;1803076;79;21177;-80
2020/12/12 02:21:08;;;;;;;31.48;17.60;;;;;;;-1.68;75.08;100214.80;1803095;79;21290;-80
2020/12/12 02:24:13;;;;;;;30.62;13.30;;;;;;;-1.68;75.20;100205.41;1802967;79;21291;-81
2020/12/12 02:27:21;;;;;;;26.15;19.15;;;;;;;-1.69;75.28;100216.25;1802683;79;21744;-80
2020/12/12 02:30:27;;;;;;;18.40;12.37;;;;;;;-1.70;75.28;100205.12;1801545;79;21343;-80
2020/12/12 02:33:32;;;;;;;20.25;14.55;;;;;;;-1.73;75.42;100197.30;1802998;79;21173;-80
2020/12/12 02:36:43;;;;;;;29.32;15.38;;;;;;;-1.72;75.51;100189.14;1802687;79;21264;-80
2020/12/12 02:39:49;;;;;;;26.42;13.95;;;;;;;-1.70;75.51;100194.39;1802062;79;21322;-80
2020/12/12 02:42:54;;;;;;;36.48;9.93;;;;;;;-1.68;75.46;100200.53;1803004;79;21359;-80
2020/12/12 02:46:00;;;;;;;18.98;12.40;;;;;;;-1.68;75.40;100203.22;1802319;79;21339;-80
2020/12/12 02:49:08;;;;;;;16.12;9.90;;;;;;;-1.69;75.41;100193.45;1803032;79;21193;-80
2020/12/12 02:52:14;;;;;;;21.50;15.03;;;;;;;-1.70;75.47;100193.91;1803149;79;21787;-80
2020/12/12 02:55:20;;;;;;;24.35;12.33;;;;;;;-1.69;75.51;100184.06;1802788;79;21268;-80
2020/12/12 02:58:26;;;;;;;24.43;16.15;;;;;;;-1.68;75.48;100190.66;1802824;79;21764;-80
2020/12/12 03:01:31;;;;;;;16.77;9.15;;;;;;;-1.67;75.44;100176.77;1802114;79;21311;-80
2020/12/12 03:04:39;;;;;;;26.45;19.12;;;;;;;-1.69;75.53;100182.73;1802980;79;21181;-80
2020/12/12 03:07:46;;;;;;;20.40;9.05;;;;;;;-1.66;75.53;100177.99;1803010;79;21811;-80
2020/12/12 03:10:51;;;;;;;28.25;8.23;;;;;;;-1.63;75.39;100175.12;1801922;79;21362;-80
2020/12/12 03:13:57;;;;;;;19.00;7.97;;;;;;;-1.63;75.30;100184.99;1802982;79;21288;-80
2020/12/12 03:17:09;;;;;;;18.40;10.10;;;;;;;-1.64;75.25;100167.19;1801982;79;21311;-80
2020/12/12 03:20:13;;;;;;;13.20;7.22;;;;;;;-1.65;75.21;100169.46;1801402;79;21208;-80
2020/12/12 03:23:19;;;;;;;22.00;11.45;;;;;;;-1.65;75.17;100182.39;1801667;79;21765;-80
2020/12/12 03:26:26;;;;;;;17.17;8.18;;;;;;;-1.66;75.15;100171.77;1803088;79;21798;-80
2020/12/12 03:29:36;;;;;;;17.70;10.50;;;;;;;-1.68;75.19;100156.28;1803425;79;21284;-80
2020/12/12 03:32:42;;;;;;;23.92;15.10;;;;;;;-1.71;75.23;100166.72;1801378;79;21201;-80
2020/12/12 03:35:48;;;;;;;24.47;15.08;;;;;;;-1.70;75.34;100167.57;1803588;79;21771;-80
2020/12/12 03:38:55;;;;;;;17.07;12.13;;;;;;;-1.71;75.47;100174.76;1803303;79;21181;-80
2020/12/12 03:42:00;;;;;;;42.60;32.53;;;;;;;-1.72;75.54;100169.02;1803563;79;21193;-80
2020/12/12 03:45:06;;;;;;;22.95;11.85;;;;;;;-1.66;75.53;100169.09;1803257;79;21161;-80
2020/12/12 03:48:12;;;;;;;37.35;27.73;;;;;;;-1.64;75.33;100181.94;1802948;79;21328;-80
2020/12/12 03:51:17;;;;;;;32.98;26.05;;;;;;;-1.62;75.22;100180.00;1801284;79;21327;-80
2020/12/12 03:54:23;;;;;;;17.62;8.25;;;;;;;-1.62;75.07;100180.86;1801640;79;21169;-80
2020/12/12 03:57:29;;;;;;;20.23;12.95;;;;;;;-1.62;75.08;100179.52;1802960;79;21279;-80
2020/12/12 04:00:34;;;;;;;23.15;14.03;;;;;;;-1.62;74.96;100174.63;1802743;79;21386;-80
2020/12/12 04:03:40;;;;;;;39.50;29.67;;;;;;;-1.63;74.98;100195.72;1800754;79;21316;-80
2020/12/12 04:06:46;;;;;;;28.50;18.52;;;;;;;-1.63;75.05;100191.70;1802886;79;21224;-80
2020/12/12 04:09:53;;;;;;;21.42;15.40;;;;;;;-1.60;75.04;100192.36;1803089;79;21295;-80
2020/12/12 04:13:00;;;;;;;33.00;21.35;;;;;;;-1.59;74.97;100191.39;1802920;79;21220;-80
2020/12/12 04:16:06;;;;;;;15.30;10.72;;;;;;;-1.60;74.96;100192.36;1801557;79;21188;-80
2020/12/12 04:19:11;;;;;;;26.82;14.87;;;;;;;-1.61;75.05;100179.03;1801591;79;21165;-80
2020/12/12 04:22:16;;;;;;;35.68;27.17;;;;;;;-1.62;75.02;100171.95;1801559;79;21349;-80
2020/12/12 04:25:20;;;;;;;14.03;9.13;;;;;;;-1.63;75.05;100171.09;1801197;79;21296;-80
2020/12/12 04:28:26;;;;;;;28.45;21.77;;;;;;;-1.63;75.03;100171.58;1803113;79;21177;-80
2020/12/12 04:31:32;;;;;;;21.50;15.00;;;;;;;-1.64;75.12;100159.14;1802369;79;21334;-80
2020/12/12 04:34:39;;;;;;;16.80;10.10;;;;;;;-1.64;75.04;100172.55;1803031;79;21343;-80
2020/12/12 04:37:44;;;;;;;20.65;8.60;;;;;;;-1.62;74.94;100162.56;1802203;79;21315;-80
2020/12/12 04:40:52;;;;;;;15.85;7.50;;;;;;;-1.61;74.94;100159.77;1802737;79;21332;-80
2020/12/12 04:43:58;;;;;;;21.40;11.90;;;;;;;-1.60;74.95;100164.65;1803054;79;21350;-80
2020/12/12 04:47:04;;;;;;;16.65;7.05;;;;;;;-1.57;74.92;100164.45;1803012;79;21343;-80
2020/12/12 04:50:10;;;;;;;36.70;26.62;;;;;;;-1.57;74.77;100158.61;1803162;79;21327;-80
2020/12/12 04:53:27;;;;;;;18.25;11.25;;;;;;;-1.55;74.76;100158.52;1803112;79;21342;-80
2020/12/12 04:56:33;;;;;;;15.28;9.53;;;;;;;-1.56;74.65;100149.59;1803096;79;21867;-80
2020/12/12 04:59:41;;;;;;;13.98;8.20;;;;;;;-1.54;74.69;100158.89;1802895;79;22009;-80
2020/12/12 05:02:46;;;;;;;26.62;15.28;;;;;;;-1.51;74.64;100155.98;1801712;79;21205;-80
2020/12/12 05:05:53;;;;;;;19.90;9.45;;;;;;;-1.50;74.39;100151.02;1803115;79;21295;-80
2020/12/12 05:08:58;;;;;;;15.30;7.70;;;;;;;-1.52;74.37;100147.56;1803111;79;21280;-80
2020/12/12 05:12:04;;;;;;;12.55;6.95;;;;;;;-1.56;74.40;100142.88;1802439;79;21284;-80
2020/12/12 05:15:10;;;;;;;10.95;6.45;;;;;;;-1.57;74.41;100137.63;1802898;79;21173;-80
2020/12/12 05:18:16;;;;;;;18.05;8.63;;;;;;;-1.60;74.50;100136.48;1802686;79;21862;-80
2020/12/12 05:21:21;;;;;;;87.65;38.35;;;;;;;-1.66;74.66;100129.72;1803004;79;21346;-78
2020/12/12 05:24:27;;;;;;;26.90;10.55;;;;;;;-1.66;74.71;100131.55;1803080;79;21327;-78
2020/12/12 05:27:32;;;;;;;14.80;6.37;;;;;;;-1.65;74.72;100130.58;1802978;79;21331;-78
2020/12/12 05:30:39;;;;;;;19.50;10.68;;;;;;;-1.69;74.79;100116.53;1805882;79;21838;-78
2020/12/12 05:33:45;;;;;;;33.83;27.40;;;;;;;-1.72;74.94;100135.50;1781231;79;21359;-78
2020/12/12 05:36:51;;;;;;;16.97;9.63;;;;;;;-1.70;74.95;100129.54;1801523;79;21379;-77
2020/12/12 05:39:57;;;;;;;16.75;9.40;;;;;;;-1.69;74.75;100122.39;1801159;79;21296;-78
2020/12/12 05:43:02;;;;;;;25.72;17.12;;;;;;;-1.70;74.71;100121.98;1804463;79;22010;-78
2020/12/12 05:46:07;;;;;;;17.55;12.35;;;;;;;-1.71;74.77;100114.91;1801142;79;21279;-78
2020/12/12 05:49:13;;;;;;;18.87;9.85;;;;;;;-1.71;74.75;100123.80;1801660;79;21874;-78
2020/12/12 05:52:18;;;;;;;20.72;13.85;;;;;;;-1.71;74.72;100120.27;1802087;79;21256;-78
2020/12/12 05:55:24;;;;;;;17.57;12.80;;;;;;;-1.70;74.82;100125.52;1803219;79;21283;-78
2020/12/12 05:58:28;;;;;;;18.82;9.58;;;;;;;-1.74;74.96;100121.80;1784103;79;21208;-78
2020/12/12 06:01:38;;;;;;;28.20;23.10;;;;;;;-1.77;75.32;100120.69;1802945;79;21807;-78
2020/12/12 06:04:46;;;;;;;24.18;8.70;;;;;;;-1.76;75.64;100125.94;1802402;79;21763;-78
2020/12/12 06:07:51;;;;;;;39.20;28.65;;;;;;;-1.76;75.85;100121.06;1803009;79;21896;-78
2020/12/12 06:10:57;;;;;;;16.05;8.10;;;;;;;-1.80;75.93;100125.76;1801207;79;21301;-78
2020/12/12 06:14:07;;;;;;;28.52;20.62;;;;;;;-1.80;76.15;100130.64;1801268;79;21752;-78
2020/12/12 06:17:14;;;;;;;13.30;6.85;;;;;;;-1.79;76.28;100115.41;1802697;79;21853;-77
2020/12/12 06:20:20;;;;;;;23.62;15.75;;;;;;;-1.81;76.52;100119.55;1801713;79;21316;-78
2020/12/12 06:23:27;;;;;;;19.80;11.08;;;;;;;-1.84;76.81;100119.73;1802818;79;21950;-78
2020/12/12 06:26:59;;;;;;;17.32;9.65;;;;;;;-1.85;77.03;100119.36;1803057;79;21288;-78
2020/12/12 06:30:04;;;;;;;20.77;12.78;;;;;;;-1.86;77.27;100120.81;1783137;79;21300;-78
2020/12/12 06:33:11;;;;;;;23.27;15.30;;;;;;;-1.86;77.51;100124.35;1802344;79;21898;-78
2020/12/12 06:36:30;;;;;;;16.90;9.60;;;;;;;-1.83;77.61;100118.80;1802787;79;21644;-78
2020/12/12 06:39:36;;;;;;;16.35;8.13;;;;;;;-1.82;77.78;100137.94;1803433;79;21306;-78
2020/12/12 06:42:43;;;;;;;22.50;13.38;;;;;;;-1.83;78.13;100116.60;1802662;79;21209;-77
2020/12/12 06:45:36;;;;;;;16.65;8.48;;;;;;;-1.86;78.47;100104.73;1803150;79;21280;-78
2020/12/12 06:48:26;;;;;;;31.27;22.90;;;;;;;-1.84;78.71;100111.69;1803019;79;21327;-78
2020/12/12 06:51:25;;;;;;;31.45;23.57;;;;;;;-1.83;78.93;100097.34;1801259;79;21343;-78
2020/12/12 06:54:24;;;;;;;42.83;32.63;;;;;;;-1.82;79.13;100114.30;1753263;79;21300;-78
2020/12/12 06:57:43;;;;;;;30.50;21.45;;;;;;;-1.85;79.35;100100.59;1802445;79;21185;-78
2020/12/12 07:00:49;;;;;;;31.45;20.92;;;;;;;-1.88;79.66;100092.78;1802741;79;21284;-78
2020/12/12 07:04:10;;;;;;;17.32;10.20;;;;;;;-1.87;80.00;100103.88;1801535;79;21323;-78
2020/12/12 07:07:18;;;;;;;26.07;20.35;;;;;;;-1.87;80.41;100111.06;1800171;79;21328;-78
2020/12/12 07:10:24;;;;;;;47.15;36.15;;;;;;;-1.87;80.84;100103.88;1802521;79;21310;-78
2020/12/12 07:13:30;;;;;;;23.47;13.80;;;;;;;-1.85;81.18;100096.57;1802403;79;21291;-78
2020/12/12 07:16:35;;;;;;;36.63;26.17;;;;;;;-1.85;81.52;100104.62;1803045;79;21838;-77
2020/12/12 07:19:47;;;;;;;18.50;11.83;;;;;;;-1.80;81.82;100101.14;1802993;79;21712;-78
2020/12/12 07:22:56;;;;;;;19.45;11.95;;;;;;;-1.76;82.04;100100.47;1803108;79;21343;-78
2020/12/12 07:26:02;;;;;;;12.85;8.05;;;;;;;-1.70;82.23;100107.23;1801370;79;21283;-78
2020/12/12 07:29:07;;;;;;;17.77;12.60;;;;;;;-1.63;82.42;100109.89;1785859;79;21173;-78
2020/12/12 07:32:13;;;;;;;22.00;8.88;;;;;;;-1.56;82.63;100091.06;1802999;79;21284;-78
2020/12/12 07:35:20;;;;;;;34.33;21.87;;;;;;;-1.50;82.78;100097.86;1801191;79;21767;-78
2020/12/12 07:38:25;;;;;;;31.05;24.27;;;;;;;-1.44;83.09;100096.09;1801686;79;21434;-78
2020/12/12 07:41:31;;;;;;;34.20;21.20;;;;;;;-1.40;83.43;100098.94;1801582;79;21308;-78
2020/12/12 07:44:43;;;;;;;14.38;10.08;;;;;;;-1.38;83.63;100099.19;1801465;79;21367;-78
2020/12/12 07:47:46;;;;;;;31.10;19.30;;;;;;;-1.38;84.14;100104.56;1802871;79;21604;-78
2020/12/12 07:50:52;;;;;;;17.65;12.10;;;;;;;-1.34;84.51;100102.05;1801699;79;21180;-78
2020/12/12 07:53:58;;;;;;;13.98;8.75;;;;;;;-1.32;84.95;100101.48;1801463;79;21324;-78
2020/12/12 07:57:04;;;;;;;27.80;16.42;;;;;;;-1.29;85.66;100095.88;1802973;79;21792;-78
2020/12/12 08:00:16;;;;;;;21.20;14.23;;;;;;;-1.26;86.40;100095.30;1802973;79;21287;-78
2020/12/12 08:03:23;;;;;;;15.53;9.18;;;;;;;-1.26;87.08;100096.65;1802883;79;21288;-78
2020/12/12 08:06:29;;;;;;;9.20;5.85;;;;;;;-1.22;87.77;100080.68;1802269;79;21743;-78
2020/12/12 08:09:36;;;;;;;11.43;6.37;;;;;;;-1.19;88.41;100084.50;1804654;79;21732;-78
2020/12/12 08:12:42;;;;;;;10.63;7.00;;;;;;;-1.18;89.06;100079.50;1808582;79;21287;-78
2020/12/12 08:15:51;;;;;;;13.95;6.17;;;;;;;-1.19;89.82;100068.40;1808192;79;21284;-78
2020/12/12 08:18:56;;;;;;;12.20;6.58;;;;;;;-1.15;90.37;100067.22;1809102;79;21231;-78
2020/12/12 08:22:13;;;;;;;11.03;6.80;;;;;;;-1.13;91.00;100058.56;1808129;79;21228;-78
2020/12/12 08:25:18;;;;;;;14.53;5.90;;;;;;;-1.11;91.45;100050.80;1808051;79;22568;-78
2020/12/12 08:28:25;;;;;;;11.65;6.22;;;;;;;-1.04;91.85;100049.86;1808550;79;21283;-78
2020/12/12 08:31:30;;;;;;;13.58;7.62;;;;;;;-1.01;92.28;100049.66;1804558;79;21239;-78
2020/12/12 08:34:36;;;;;;;13.03;8.03;;;;;;;-0.98;92.61;100050.80;1808075;79;21188;-78
2020/12/12 08:37:42;;;;;;;11.22;7.47;;;;;;;-0.95;92.97;100045.67;1807493;79;21826;-78
2020/12/12 08:40:53;;;;;;;12.93;6.70;;;;;;;-0.93;93.34;100031.67;1808682;79;21173;-78
2020/12/12 08:43:59;;;;;;;10.40;7.15;;;;;;;-0.88;93.71;100031.70;1808280;79;21177;-78
2020/12/12 08:47:04;;;;;;;11.03;6.92;;;;;;;-0.82;93.93;100025.89;1808218;79;21307;-78
2020/12/12 08:50:10;;;;;;;12.88;6.47;;;;;;;-0.77;94.14;100021.52;1808467;79;21590;-77
2020/12/12 08:53:46;;;;;;;11.65;7.00;;;;;;;-0.73;94.22;100028.39;1808113;79;21862;-78
2020/12/12 08:56:51;;;;;;;9.03;6.42;;;;;;;-0.68;94.23;99995.83;1808319;79;21287;-77
2020/12/12 09:00:08;;;;;;;12.82;6.75;;;;;;;-0.62;94.22;99994.02;1808368;79;21283;-77
2020/12/12 09:03:15;;;;;;;14.55;6.30;;;;;;;-0.58;94.16;99991.48;1808553;79;21831;-78
2020/12/12 09:06:21;;;;;;;10.45;6.62;;;;;;;-0.53;94.10;99997.38;1806639;79;21901;-78
2020/12/12 09:09:38;;;;;;;12.50;6.67;;;;;;;-0.48;93.92;99999.73;1801624;79;21327;-78
2020/12/12 09:12:56;;;;;;;8.80;5.90;;;;;;;-0.47;93.85;99990.69;1800798;79;21315;-78
2020/12/12 09:16:02;;;;;;;12.03;7.05;;;;;;;-0.42;93.83;99989.40;1801292;79;21213;-78
2020/12/12 09:19:09;;;;;;;10.68;6.33;;;;;;;-0.40;93.73;99998.19;1802943;79;21288;-78
2020/12/12 09:22:16;;;;;;;8.03;5.30;;;;;;;-0.42;93.58;99977.30;1802588;79;21858;-78
2020/12/12 09:25:21;;;;;;;7.47;4.87;;;;;;;-0.40;93.58;99978.52;1801934;79;21871;-78
2020/12/12 09:28:26;;;;;;;9.98;5.72;;;;;;;-0.35;93.59;99987.09;1802484;79;21346;-78
2020/12/12 09:31:32;;;;;;;7.03;4.95;;;;;;;-0.29;93.62;99987.48;1802427;79;21288;-78
2020/12/12 09:34:38;;;;;;;9.10;5.42;;;;;;;-0.27;93.57;99980.18;1803030;79;21836;-78
2020/12/12 09:37:44;;;;;;;9.95;5.20;;;;;;;-0.23;93.49;99982.65;1802110;79;21307;-78
2020/12/12 09:40:52;;;;;;;7.90;4.80;;;;;;;-0.20;93.44;99991.31;1802826;79;21704;-78
2020/12/12 09:43:59;;;;;;;12.28;5.17;;;;;;;-0.19;93.42;99988.98;1803169;79;21287;-78
2020/12/12 09:47:04;;;;;;;9.43;5.40;;;;;;;-0.21;93.38;99989.61;1802873;79;21644;-78
2020/12/12 09:50:10;;;;;;;8.68;5.08;;;;;;;-0.24;93.46;99997.03;1802969;79;22385;-78
2020/12/12 09:53:17;;;;;;;8.30;5.28;;;;;;;-0.26;93.59;99998.02;1802279;79;21304;-78
2020/12/12 09:56:23;;;;;;;9.33;5.17;;;;;;;-0.24;93.75;100002.41;1802146;79;21429;-78
2020/12/12 09:59:27;;;;;;;8.83;6.25;;;;;;;-0.26;93.91;99989.95;1802879;79;22493;-78
2020/12/12 10:02:34;;;;;;;7.72;4.53;;;;;;;-0.24;94.09;99994.34;1802949;79;21705;-77
2020/12/12 10:05:41;;;;;;;10.05;6.03;;;;;;;-0.26;94.29;99987.75;1802472;79;21327;-77
2020/12/12 10:08:49;;;;;;;6.15;4.72;;;;;;;-0.24;94.49;99988.48;1801981;79;21303;-78
2020/12/12 10:11:57;;;;;;;9.70;4.72;;;;;;;-0.23;94.68;99987.53;1802964;79;21185;-78
2020/12/12 10:15:04;;;;;;;13.78;5.53;;;;;;;-0.21;94.85;99984.72;1801698;79;21200;-78
2020/12/12 10:18:10;;;;;;;6.97;5.45;;;;;;;-0.19;95.03;99979.58;1803048;79;21287;-78
2020/12/12 10:21:17;;;;;;;7.90;4.80;;;;;;;-0.13;95.17;99980.97;1802902;79;21216;-78
2020/12/12 10:24:22;;;;;;;7.45;4.40;;;;;;;-0.07;95.28;99983.19;1801834;79;21838;-78
2020/12/12 10:27:28;;;;;;;6.25;4.72;;;;;;;-0.05;95.30;99984.80;1801514;79;21321;-78
2020/12/12 10:30:34;;;;;;;8.93;5.05;;;;;;;-0.04;95.33;99982.97;1803053;79;21822;-78
2020/12/12 10:33:39;;;;;;;6.40;4.22;;;;;;;-0.04;95.41;99986.51;1803020;79;21224;-78
2020/12/12 10:36:46;;;;;;;7.47;5.15;;;;;;;-0.03;95.53;99980.64;1802036;79;21244;-78
2020/12/12 10:39:58;;;;;;;6.90;4.47;;;;;;;-0.01;95.71;99983.56;1802461;79;21830;-78
2020/12/12 10:42:59;;;;;;;5.67;4.30;;;;;;;0.01;95.83;99984.81;1802961;79;21436;-78
2020/12/12 10:46:05;;;;;;;5.75;4.50;;;;;;;0.05;95.97;99986.76;1802637;79;21311;-77
2020/12/12 10:49:12;;;;;;;6.87;4.50;;;;;;;0.08;96.00;99984.70;1802958;79;21291;-77
2020/12/12 10:52:19;;;;;;;8.60;5.62;;;;;;;0.14;96.02;99983.36;1802857;79;21181;-77
2020/12/12 10:55:25;;;;;;;7.03;4.65;;;;;;;0.18;95.96;99976.28;1801330;79;21315;-77
2020/12/12 10:58:30;;;;;;;7.83;4.97;;;;;;;0.22;95.84;99983.15;1803066;79;21743;-77
2020/12/12 11:01:36;;;;;;;6.20;3.90;;;;;;;0.22;95.70;99972.39;1802998;79;21177;-78
2020/12/12 11:04:42;;;;;;;8.78;5.20;;;;;;;0.22;95.61;99975.08;1801664;79;21272;-78
2020/12/12 11:07:47;;;;;;;7.62;4.95;;;;;;;0.24;95.53;99979.88;1801696;79;22510;-77
2020/12/12 11:10:53;;;;;;;8.33;4.95;;;;;;;0.28;95.52;99986.34;1800039;79;21389;-78
2020/12/12 11:13:58;;;;;;;7.28;5.22;;;;;;;0.30;95.49;99982.56;1802901;79;21589;-77
2020/12/12 11:17:04;;;;;;;10.40;4.80;;;;;;;0.31;95.49;99992.84;1802284;79;21295;-78
2020/12/12 11:20:10;;;;;;;9.93;5.80;;;;;;;0.34;95.50;99992.13;1805824;79;21279;-77
2020/12/12 11:23:15;;;;;;;9.85;5.50;;;;;;;0.39;95.52;99998.00;1803035;79;21814;-77
2020/12/12 11:26:21;;;;;;;10.68;5.17;;;;;;;0.42;95.45;99996.89;1803007;79;21858;-77
2020/12/12 11:29:26;;;;;;;10.43;5.33;;;;;;;0.44;95.38;99992.27;1802838;79;21339;-77
2020/12/12 11:32:32;;;;;;;16.17;8.30;;;;;;;0.47;95.34;99996.03;1803219;79;21163;-77
2020/12/12 11:35:50;;;;;;;7.72;6.03;;;;;;;0.52;95.34;99991.19;1801273;79;21197;-77
2020/12/12 11:45:21;;;;;;;13.90;8.73;;;;;;;0.56;95.28;99993.13;1766006;79;21304;-78
2020/12/12 11:48:10;;;;;;;16.23;9.13;;;;;;;0.58;95.29;99992.03;1801729;79;21267;-77
2020/12/12 11:51:15;;;;;;;19.60;9.93;;;;;;;0.53;95.26;100002.31;1802897;79;21195;-78
2020/12/12 11:54:20;;;;;;;18.73;10.58;;;;;;;0.51;95.32;99991.64;1802801;79;21304;-78
2020/12/12 11:57:26;;;;;;;14.90;8.95;;;;;;;0.53;95.46;99996.92;1802237;79;21215;-78
2020/12/12 12:00:32;;;;;;;17.12;9.93;;;;;;;0.56;95.57;99998.02;1802556;79;21850;-78
2020/12/12 12:03:38;;;;;;;16.05;10.35;;;;;;;0.56;95.68;100000.70;1802703;79;21328;-78
2020/12/12 12:06:44;;;;;;;17.27;10.23;;;;;;;0.59;95.78;100003.16;1802730;79;21295;-77
2020/12/12 12:09:58;;;;;;;16.20;10.48;;;;;;;0.60;95.84;100008.91;1802870;79;21322;-77
2020/12/12 12:13:00;;;;;;;19.40;10.90;;;;;;;0.60;95.93;100006.22;1806715;79;21331;-77
2020/12/12 12:16:06;;;;;;;16.35;10.93;;;;;;;0.61;96.03;100003.92;1811466;79;21779;-77
2020/12/12 12:19:23;;;;;;;17.60;9.65;;;;;;;0.63;96.15;100007.34;1811254;79;21280;-78
2020/12/12 12:22:28;;;;;;;17.87;10.78;;;;;;;0.67;96.27;100016.89;1809966;79;21895;-78
2020/12/12 12:25:34;;;;;;;16.25;10.60;;;;;;;0.70;96.35;100016.63;1810908;79;21215;-77
2020/12/12 12:28:39;;;;;;;14.98;9.95;;;;;;;0.73;96.40;100024.48;1809759;79;21327;-78
2020/12/12 12:31:48;;;;;;;17.75;11.25;;;;;;;0.75;96.39;100014.92;1811460;79;21879;-77
2020/12/12 12:34:53;;;;;;;21.40;12.70;;;;;;;0.76;96.41;100026.08;1811199;79;21224;-78
2020/12/12 12:37:59;;;;;;;22.32;13.08;;;;;;;0.73;96.45;100015.05;1810136;79;21318;-79
2020/12/12 12:41:05;;;;;;;22.07;13.05;;;;;;;0.72;96.53;100013.84;1810381;79;21208;-79
2020/12/12 12:44:11;;;;;;;25.52;13.95;;;;;;;0.73;96.64;100026.31;1811038;79;21338;-78
2020/12/12 12:47:16;;;;;;;27.22;13.60;;;;;;;0.72;96.76;100024.11;1811336;79;21279;-79
2020/12/12 12:50:33;;;;;;;21.93;13.08;;;;;;;0.74;96.90;100020.80;1811431;79;21279;-78
2020/12/12 12:53:29;;;;;;;25.77;13.62;;;;;;;0.80;97.02;100034.30;1811512;79;21282;-78
2020/12/12 12:56:35;;;;;;;23.20;13.60;;;;;;;0.81;97.09;100029.27;1810615;79;21307;-78
2020/12/12 12:59:42;;;;;;;22.42;13.98;;;;;;;0.80;97.15;100027.56;1811553;79;21302;-78
2020/12/12 13:02:48;;;;;;;23.57;13.25;;;;;;;0.78;97.26;100035.38;1811545;79;21177;-78
2020/12/12 13:05:54;;;;;;;25.68;13.90;;;;;;;0.78;97.39;100036.72;1811535;79;21275;-78
2020/12/12 13:09:01;;;;;;;29.10;15.15;;;;;;;0.76;97.53;100032.81;1810458;79;21846;-78
2020/12/12 13:12:07;;;;;;;26.73;15.10;;;;;;;0.75;97.73;100034.66;1810427;79;21826;-78
2020/12/12 13:15:14;;;;;;;28.42;14.00;;;;;;;0.74;97.90;100034.26;1810023;79;21295;-78
2020/12/12 13:18:26;;;;;;;24.90;14.78;;;;;;;0.75;98.11;100034.66;1810024;79;21703;-78
2020/12/12 13:22:11;;;;;;;30.00;14.33;;;;;;;0.75;98.31;100037.34;1811322;79;21287;-78
2020/12/12 13:24:36;;;;;;;30.97;14.80;;;;;;;0.75;98.52;100040.03;1797811;79;21338;-78
2020/12/12 13:27:43;;;;;;;28.07;15.95;;;;;;;0.76;98.72;100043.09;1810101;79;21318;-78
2020/12/12 13:31:06;;;;;;;29.20;16.10;;;;;;;0.80;98.94;100045.52;1811450;79;21181;-78
2020/12/12 13:34:13;;;;;;;32.38;15.95;;;;;;;0.82;99.09;100046.28;1791090;79;21322;-78
2020/12/12 13:37:19;;;;;;;34.13;16.57;;;;;;;0.83;99.24;100053.37;1811024;79;21330;-78
2020/12/12 13:40:24;;;;;;;40.67;18.27;;;;;;;0.85;99.40;100052.74;1811457;79;21287;-78
2020/12/12 13:43:29;;;;;;;43.28;19.92;;;;;;;0.88;99.53;100062.80;1809796;79;21319;-78
2020/12/12 13:46:36;;;;;;;42.83;19.57;;;;;;;0.91;99.67;100061.22;1811067;79;21438;-78
2020/12/12 13:49:43;;;;;;;43.70;20.95;;;;;;;0.92;99.80;100060.73;1809306;79;21370;-78
2020/12/12 13:52:50;;;;;;;46.37;22.13;;;;;;;0.91;99.93;100061.22;1809584;79;21802;-78
2020/12/12 13:55:56;;;;;;;43.58;21.37;;;;;;;0.92;100.00;100060.73;1786030;79;21690;-78
2020/12/12 13:59:01;;;;;;;49.30;21.65;;;;;;;0.95;100.00;100063.19;1810009;79;21264;-78
2020/12/12 14:02:07;;;;;;;46.20;23.75;;;;;;;0.96;100.00;100067.09;1811187;79;21196;-79
2020/12/12 14:05:13;;;;;;;53.85;24.45;;;;;;;0.97;100.00;100066.11;1809844;79;21239;-78
2020/12/12 14:08:33;;;;;;;48.87;24.05;;;;;;;0.97;100.00;100062.08;1809819;79;21303;-78
2020/12/12 14:21:57;;;;;;;63.23;27.45;;;;;;;1.06;100.00;100079.84;1795660;80;21720;-79
2020/12/12 14:24:55;;;;;;;59.63;24.72;;;;;;;1.08;100.00;100074.68;1795593;80;21289;-79
2020/12/12 14:28:24;;;;;;;71.30;24.67;;;;;;;1.11;100.00;100076.29;1794305;80;21331;-78
2020/12/12 14:31:33;;;;;;;68.62;25.95;;;;;;;1.13;100.00;100079.24;1795398;80;21312;-79
2020/12/12 14:34:39;;;;;;;78.57;27.37;;;;;;;1.14;100.00;100080.95;1795436;80;21593;-79